sensor_id;sensor_type;location;lat;lon;timestamp;temperature;humidity
40848;DHT22;26570;50.962;5.340;2023-09-19T00:04:38;16.40;99.90
40848;DHT22;26570;50.962;5.340;2023-09-19T00:07:57;16.60;99.90
40848;DHT22;26570;50.962;5.340;2023-09-19T00:11:21;16.30;99.90
40848;DHT22;26570;50.962;5.340;2023-09-19T00:14:28;16.40;99.90
40848;DHT22;26570;50.962;5.340;2023-09-19T00:18:08;16.40;99.90
40848;DHT22;26570;50.962;5.340;2023-09-19T00:21:35;16.50;99.90
40848;DHT22;26570;50.962;5.340;2023-09-19T00:24:23;16.30;99.90
40848;DHT22;26570;50.962;5.340;2023-09-19T00:27:45;16.20;99.90
40848;DHT22;26570;50.962;5.340;2023-09-19T00:31:14;16.40;99.90
40848;DHT22;26570;50.962;5.340;2023-09-19T00:34:25;16.30;99.90
40848;DHT22;26570;50.962;5.340;2023-09-19T00:44:42;16.30;99.90
40848;DHT22;26570;50.962;5.340;2023-09-19T00:48:18;16.20;99.90
40848;DHT22;26570;50.962;5.340;2023-09-19T00:55:24;16.30;99.90
40848;DHT22;26570;50.962;5.340;2023-09-19T00:58:23;16.30;99.90
40848;DHT22;26570;50.962;5.340;2023-09-19T01:01:32;16.30;99.90
40848;DHT22;26570;50.962;5.340;2023-09-19T01:04:48;16.30;99.90
40848;DHT22;26570;50.962;5.340;2023-09-19T01:07:38;16.30;99.90
40848;DHT22;26570;50.962;5.340;2023-09-19T01:10:30;16.30;99.90
40848;DHT22;26570;50.962;5.340;2023-09-19T01:14:24;16.10;99.90
40848;DHT22;26570;50.962;5.340;2023-09-19T01:18:16;16.10;99.90
40848;DHT22;26570;50.962;5.340;2023-09-19T01:31:48;16.10;99.90
40848;DHT22;26570;50.962;5.340;2023-09-19T01:34:51;16.20;99.90
40848;DHT22;26570;50.962;5.340;2023-09-19T01:37:44;16.20;99.90
40848;DHT22;26570;50.962;5.340;2023-09-19T01:40:52;16.10;99.90
40848;DHT22;26570;50.962;5.340;2023-09-19T01:44:09;16.10;99.90
40848;DHT22;26570;50.962;5.340;2023-09-19T01:48:25;16.30;99.90
40848;DHT22;26570;50.962;5.340;2023-09-19T01:52:00;16.10;99.90
40848;DHT22;26570;50.962;5.340;2023-09-19T01:58:48;16.10;99.90
40848;DHT22;26570;50.962;5.340;2023-09-19T02:02:00;16.10;99.90
40848;DHT22;26570;50.962;5.340;2023-09-19T02:04:50;16.10;99.90
40848;DHT22;26570;50.962;5.340;2023-09-19T02:08:09;16.00;99.90
40848;DHT22;26570;50.962;5.340;2023-09-19T02:11:21;15.80;99.90
40848;DHT22;26570;50.962;5.340;2023-09-19T02:14:18;15.80;99.90
40848;DHT22;26570;50.962;5.340;2023-09-19T02:17:28;15.90;99.90
40848;DHT22;26570;50.962;5.340;2023-09-19T02:20:17;16.10;99.90
40848;DHT22;26570;50.962;5.340;2023-09-19T02:23:56;15.90;99.90
40848;DHT22;26570;50.962;5.340;2023-09-19T02:27:24;15.80;99.90
40848;DHT22;26570;50.962;5.340;2023-09-19T02:30:11;16.00;99.90
40848;DHT22;26570;50.962;5.340;2023-09-19T02:33:35;15.90;99.90
40848;DHT22;26570;50.962;5.340;2023-09-19T02:40:34;15.80;99.90
40848;DHT22;26570;50.962;5.340;2023-09-19T02:43:27;15.80;99.90
40848;DHT22;26570;50.962;5.340;2023-09-19T02:46:15;15.70;99.90
40848;DHT22;26570;50.962;5.340;2023-09-19T02:49:32;15.60;99.90
40848;DHT22;26570;50.962;5.340;2023-09-19T02:52:20;15.70;99.90
40848;DHT22;26570;50.962;5.340;2023-09-19T02:55:26;16.00;99.90
40848;DHT22;26570;50.962;5.340;2023-09-19T02:58:37;15.90;99.90
40848;DHT22;26570;50.962;5.340;2023-09-19T03:01:49;16.00;99.90
40848;DHT22;26570;50.962;5.340;2023-09-19T03:04:39;15.90;99.90
40848;DHT22;26570;50.962;5.340;2023-09-19T03:08:02;15.60;99.90
40848;DHT22;26570;50.962;5.340;2023-09-19T03:10:56;15.70;99.90
40848;DHT22;26570;50.962;5.340;2023-09-19T03:14:24;15.70;99.90
40848;DHT22;26570;50.962;5.340;2023-09-19T03:17:12;15.70;99.90
40848;DHT22;26570;50.962;5.340;2023-09-19T03:20:00;15.80;99.90
40848;DHT22;26570;50.962;5.340;2023-09-19T03:23:02;15.80;99.90
40848;DHT22;26570;50.962;5.340;2023-09-19T03:25:51;15.80;99.90
40848;DHT22;26570;50.962;5.340;2023-09-19T03:29:21;15.70;99.90
40848;DHT22;26570;50.962;5.340;2023-09-19T03:32:31;15.90;99.90
40848;DHT22;26570;50.962;5.340;2023-09-19T03:35:22;15.20;99.90
40848;DHT22;26570;50.962;5.340;2023-09-19T03:38:15;15.70;99.90
40848;DHT22;26570;50.962;5.340;2023-09-19T03:41:25;15.70;99.90
40848;DHT22;26570;50.962;5.340;2023-09-19T03:44:45;15.60;99.90
40848;DHT22;26570;50.962;5.340;2023-09-19T03:47:49;15.70;99.90
40848;DHT22;26570;50.962;5.340;2023-09-19T03:51:14;15.80;99.90
40848;DHT22;26570;50.962;5.340;2023-09-19T03:54:40;15.80;99.90
40848;DHT22;26570;50.962;5.340;2023-09-19T03:58:09;15.70;99.90
40848;DHT22;26570;50.962;5.340;2023-09-19T04:01:06;15.80;99.90
40848;DHT22;26570;50.962;5.340;2023-09-19T04:04:15;15.70;99.90
40848;DHT22;26570;50.962;5.340;2023-09-19T04:07:13;15.60;99.90
40848;DHT22;26570;50.962;5.340;2023-09-19T04:10:23;15.80;99.90
40848;DHT22;26570;50.962;5.340;2023-09-19T04:13:36;15.70;99.90
40848;DHT22;26570;50.962;5.340;2023-09-19T04:16:32;15.60;99.90
40848;DHT22;26570;50.962;5.340;2023-09-19T04:19:40;15.90;99.90
40848;DHT22;26570;50.962;5.340;2023-09-19T04:22:39;15.70;99.90
40848;DHT22;26570;50.962;5.340;2023-09-19T04:29:21;15.90;99.90
40848;DHT22;26570;50.962;5.340;2023-09-19T04:32:16;15.80;99.90
40848;DHT22;26570;50.962;5.340;2023-09-19T04:35:13;15.90;99.90
40848;DHT22;26570;50.962;5.340;2023-09-19T04:38:24;15.70;99.90
40848;DHT22;26570;50.962;5.340;2023-09-19T04:41:18;15.70;99.90
40848;DHT22;26570;50.962;5.340;2023-09-19T04:44:06;15.90;99.90
40848;DHT22;26570;50.962;5.340;2023-09-19T04:47:04;15.60;99.90
40848;DHT22;26570;50.962;5.340;2023-09-19T04:50:19;15.80;99.90
40848;DHT22;26570;50.962;5.340;2023-09-19T04:53:18;15.90;99.90
40848;DHT22;26570;50.962;5.340;2023-09-19T04:56:28;15.70;99.90
40848;DHT22;26570;50.962;5.340;2023-09-19T04:59:51;15.50;99.90
40848;DHT22;26570;50.962;5.340;2023-09-19T05:03:12;15.50;99.90
40848;DHT22;26570;50.962;5.340;2023-09-19T05:06:11;15.50;99.90
40848;DHT22;26570;50.962;5.340;2023-09-19T05:09:30;15.70;99.90
40848;DHT22;26570;50.962;5.340;2023-09-19T05:12:29;15.60;99.90
40848;DHT22;26570;50.962;5.340;2023-09-19T05:15:21;15.60;99.90
40848;DHT22;26570;50.962;5.340;2023-09-19T05:18:31;16.00;99.90
40848;DHT22;26570;50.962;5.340;2023-09-19T05:21:53;15.80;99.90
40848;DHT22;26570;50.962;5.340;2023-09-19T05:25:12;15.60;99.90
40848;DHT22;26570;50.962;5.340;2023-09-19T05:28:25;15.60;99.90
40848;DHT22;26570;50.962;5.340;2023-09-19T05:31:54;15.50;99.90
40848;DHT22;26570;50.962;5.340;2023-09-19T05:34:55;15.50;99.90
40848;DHT22;26570;50.962;5.340;2023-09-19T05:38:44;15.40;99.90
40848;DHT22;26570;50.962;5.340;2023-09-19T05:41:45;15.60;99.90
40848;DHT22;26570;50.962;5.340;2023-09-19T05:44:45;15.70;99.90
40848;DHT22;26570;50.962;5.340;2023-09-19T05:47:52;15.30;99.90
40848;DHT22;26570;50.962;5.340;2023-09-19T05:51:13;15.30;99.90
40848;DHT22;26570;50.962;5.340;2023-09-19T05:54:13;15.40;99.90
40848;DHT22;26570;50.962;5.340;2023-09-19T05:57:19;15.40;99.90
40848;DHT22;26570;50.962;5.340;2023-09-19T06:00:23;15.20;99.90
40848;DHT22;26570;50.962;5.340;2023-09-19T06:03:48;15.30;99.90
40848;DHT22;26570;50.962;5.340;2023-09-19T06:06:47;15.50;99.90
40848;DHT22;26570;50.962;5.340;2023-09-19T06:09:50;15.40;99.90
40848;DHT22;26570;50.962;5.340;2023-09-19T06:12:40;15.50;99.90
40848;DHT22;26570;50.962;5.340;2023-09-19T06:15:50;15.50;99.90
40848;DHT22;26570;50.962;5.340;2023-09-19T06:18:38;15.90;99.90
40848;DHT22;26570;50.962;5.340;2023-09-19T06:21:32;15.60;99.90
40848;DHT22;26570;50.962;5.340;2023-09-19T06:25:11;15.70;99.90
40848;DHT22;26570;50.962;5.340;2023-09-19T06:28:38;15.30;99.90
40848;DHT22;26570;50.962;5.340;2023-09-19T06:31:45;15.60;99.90
40848;DHT22;26570;50.962;5.340;2023-09-19T06:35:05;15.70;99.90
40848;DHT22;26570;50.962;5.340;2023-09-19T06:38:08;15.80;99.90
40848;DHT22;26570;50.962;5.340;2023-09-19T06:42:17;15.90;99.90
40848;DHT22;26570;50.962;5.340;2023-09-19T06:45:11;16.00;99.90
40848;DHT22;26570;50.962;5.340;2023-09-19T06:48:27;16.20;99.90
40848;DHT22;26570;50.962;5.340;2023-09-19T06:51:50;16.50;99.90
40848;DHT22;26570;50.962;5.340;2023-09-19T06:54:43;16.30;99.90
40848;DHT22;26570;50.962;5.340;2023-09-19T06:57:32;16.50;99.90
40848;DHT22;26570;50.962;5.340;2023-09-19T07:03:20;16.90;99.90
40848;DHT22;26570;50.962;5.340;2023-09-19T07:07:13;17.00;99.90
40848;DHT22;26570;50.962;5.340;2023-09-19T07:09:59;17.20;99.90
40848;DHT22;26570;50.962;5.340;2023-09-19T07:12:44;17.50;99.90
40848;DHT22;26570;50.962;5.340;2023-09-19T07:15:33;17.60;99.90
40848;DHT22;26570;50.962;5.340;2023-09-19T07:18:23;17.70;99.90
40848;DHT22;26570;50.962;5.340;2023-09-19T07:21:07;17.80;99.90
40848;DHT22;26570;50.962;5.340;2023-09-19T07:23:53;17.80;99.90
40848;DHT22;26570;50.962;5.340;2023-09-19T07:26:38;17.80;99.90
40848;DHT22;26570;50.962;5.340;2023-09-19T07:29:24;18.00;99.90
40848;DHT22;26570;50.962;5.340;2023-09-19T07:32:10;18.30;99.90
40848;DHT22;26570;50.962;5.340;2023-09-19T07:34:56;18.50;99.90
40848;DHT22;26570;50.962;5.340;2023-09-19T07:37:42;18.40;99.90
40848;DHT22;26570;50.962;5.340;2023-09-19T07:40:27;18.40;99.90
40848;DHT22;26570;50.962;5.340;2023-09-19T07:43:13;18.40;99.90
40848;DHT22;26570;50.962;5.340;2023-09-19T07:46:03;18.80;99.90
40848;DHT22;26570;50.962;5.340;2023-09-19T07:48:48;19.00;99.90
40848;DHT22;26570;50.962;5.340;2023-09-19T07:51:34;18.90;99.90
40848;DHT22;26570;50.962;5.340;2023-09-19T07:54:19;18.80;99.90
40848;DHT22;26570;50.962;5.340;2023-09-19T07:57:05;18.90;99.90
40848;DHT22;26570;50.962;5.340;2023-09-19T07:59:50;18.90;99.90
40848;DHT22;26570;50.962;5.340;2023-09-19T08:02:38;18.90;99.90
40848;DHT22;26570;50.962;5.340;2023-09-19T08:05:24;19.00;99.90
40848;DHT22;26570;50.962;5.340;2023-09-19T08:08:10;19.40;99.90
40848;DHT22;26570;50.962;5.340;2023-09-19T08:10:58;19.50;99.90
40848;DHT22;26570;50.962;5.340;2023-09-19T08:13:43;19.70;99.90
40848;DHT22;26570;50.962;5.340;2023-09-19T08:16:30;20.00;99.90
40848;DHT22;26570;50.962;5.340;2023-09-19T08:19:15;19.90;99.90
40848;DHT22;26570;50.962;5.340;2023-09-19T08:22:00;19.70;99.90
40848;DHT22;26570;50.962;5.340;2023-09-19T08:24:48;20.00;99.90
40848;DHT22;26570;50.962;5.340;2023-09-19T08:27:33;19.90;99.90
40848;DHT22;26570;50.962;5.340;2023-09-19T08:30:21;19.90;99.90
40848;DHT22;26570;50.962;5.340;2023-09-19T08:33:12;20.00;99.90
40848;DHT22;26570;50.962;5.340;2023-09-19T08:36:00;20.00;99.90
40848;DHT22;26570;50.962;5.340;2023-09-19T08:38:45;20.00;99.90
40848;DHT22;26570;50.962;5.340;2023-09-19T08:41:31;19.80;99.90
40848;DHT22;26570;50.962;5.340;2023-09-19T08:44:19;20.00;99.90
40848;DHT22;26570;50.962;5.340;2023-09-19T08:47:11;20.00;99.90
40848;DHT22;26570;50.962;5.340;2023-09-19T08:50:11;20.10;99.90
40848;DHT22;26570;50.962;5.340;2023-09-19T08:53:02;20.10;99.90
40848;DHT22;26570;50.962;5.340;2023-09-19T08:55:51;19.90;99.90
40848;DHT22;26570;50.962;5.340;2023-09-19T08:58:59;20.10;99.90
40848;DHT22;26570;50.962;5.340;2023-09-19T09:01:45;20.30;99.90
40848;DHT22;26570;50.962;5.340;2023-09-19T09:04:33;20.30;99.90
40848;DHT22;26570;50.962;5.340;2023-09-19T09:07:19;20.30;99.90
40848;DHT22;26570;50.962;5.340;2023-09-19T09:10:06;20.30;99.90
40848;DHT22;26570;50.962;5.340;2023-09-19T09:12:52;20.30;99.90
40848;DHT22;26570;50.962;5.340;2023-09-19T09:15:41;20.60;99.90
40848;DHT22;26570;50.962;5.340;2023-09-19T09:18:29;20.40;99.90
40848;DHT22;26570;50.962;5.340;2023-09-19T09:21:20;20.30;99.90
40848;DHT22;26570;50.962;5.340;2023-09-19T09:24:28;20.20;99.90
40848;DHT22;26570;50.962;5.340;2023-09-19T09:27:14;20.20;99.90
40848;DHT22;26570;50.962;5.340;2023-09-19T09:29:59;20.60;99.90
40848;DHT22;26570;50.962;5.340;2023-09-19T09:32:44;20.90;99.90
40848;DHT22;26570;50.962;5.340;2023-09-19T09:35:29;21.20;99.90
40848;DHT22;26570;50.962;5.340;2023-09-19T09:38:15;21.40;99.90
40848;DHT22;26570;50.962;5.340;2023-09-19T09:41:01;21.30;99.90
40848;DHT22;26570;50.962;5.340;2023-09-19T09:43:50;21.10;99.90
40848;DHT22;26570;50.962;5.340;2023-09-19T09:46:37;20.90;99.90
40848;DHT22;26570;50.962;5.340;2023-09-19T09:49:39;20.80;99.90
40848;DHT22;26570;50.962;5.340;2023-09-19T09:52:25;20.90;99.90
40848;DHT22;26570;50.962;5.340;2023-09-19T09:55:10;21.10;99.90
40848;DHT22;26570;50.962;5.340;2023-09-19T09:58:16;21.10;99.90
40848;DHT22;26570;50.962;5.340;2023-09-19T10:01:08;20.90;99.90
40848;DHT22;26570;50.962;5.340;2023-09-19T10:03:59;20.90;99.90
40848;DHT22;26570;50.962;5.340;2023-09-19T10:06:45;20.70;99.90
40848;DHT22;26570;50.962;5.340;2023-09-19T10:09:45;20.40;99.90
40848;DHT22;26570;50.962;5.340;2023-09-19T10:12:38;20.50;99.90
40848;DHT22;26570;50.962;5.340;2023-09-19T10:15:27;20.50;99.90
40848;DHT22;26570;50.962;5.340;2023-09-19T10:18:20;20.60;99.90
40848;DHT22;26570;50.962;5.340;2023-09-19T10:21:08;20.70;99.90
40848;DHT22;26570;50.962;5.340;2023-09-19T10:23:54;20.60;99.90
40848;DHT22;26570;50.962;5.340;2023-09-19T10:26:41;20.70;99.90
40848;DHT22;26570;50.962;5.340;2023-09-19T10:29:29;21.00;99.90
40848;DHT22;26570;50.962;5.340;2023-09-19T10:32:19;21.10;99.90
40848;DHT22;26570;50.962;5.340;2023-09-19T10:35:05;21.00;99.90
40848;DHT22;26570;50.962;5.340;2023-09-19T10:37:54;20.90;99.90
40848;DHT22;26570;50.962;5.340;2023-09-19T10:40:50;21.10;99.90
40848;DHT22;26570;50.962;5.340;2023-09-19T10:44:06;20.80;99.90
40848;DHT22;26570;50.962;5.340;2023-09-19T10:46:54;21.00;99.90
40848;DHT22;26570;50.962;5.340;2023-09-19T10:49:46;20.90;99.90
40848;DHT22;26570;50.962;5.340;2023-09-19T10:52:33;21.10;99.90
40848;DHT22;26570;50.962;5.340;2023-09-19T10:55:25;21.20;99.90
40848;DHT22;26570;50.962;5.340;2023-09-19T10:58:28;21.40;99.90
40848;DHT22;26570;50.962;5.340;2023-09-19T11:01:18;21.60;99.90
40848;DHT22;26570;50.962;5.340;2023-09-19T11:04:24;21.40;99.90
40848;DHT22;26570;50.962;5.340;2023-09-19T11:07:11;21.30;99.90
40848;DHT22;26570;50.962;5.340;2023-09-19T11:09:56;21.40;99.90
40848;DHT22;26570;50.962;5.340;2023-09-19T11:27:13;22.10;99.90
40848;DHT22;26570;50.962;5.340;2023-09-19T11:30:26;22.10;99.90
40848;DHT22;26570;50.962;5.340;2023-09-19T11:36:57;22.20;99.90
40848;DHT22;26570;50.962;5.340;2023-09-19T11:40:08;22.40;99.90
40848;DHT22;26570;50.962;5.340;2023-09-19T11:46:33;22.80;99.90
40848;DHT22;26570;50.962;5.340;2023-09-19T11:49:32;23.10;99.90
40848;DHT22;26570;50.962;5.340;2023-09-19T11:52:43;22.80;99.90
40848;DHT22;26570;50.962;5.340;2023-09-19T11:55:42;22.60;99.90
40848;DHT22;26570;50.962;5.340;2023-09-19T11:58:35;22.60;99.90
40848;DHT22;26570;50.962;5.340;2023-09-19T12:01:30;22.40;99.90
40848;DHT22;26570;50.962;5.340;2023-09-19T12:04:42;22.30;99.90
40848;DHT22;26570;50.962;5.340;2023-09-19T12:07:45;22.30;99.90
40848;DHT22;26570;50.962;5.340;2023-09-19T12:10:50;22.40;99.90
40848;DHT22;26570;50.962;5.340;2023-09-19T12:13:44;22.40;99.90
40848;DHT22;26570;50.962;5.340;2023-09-19T12:16:31;22.50;99.90
40848;DHT22;26570;50.962;5.340;2023-09-19T12:19:24;22.70;99.90
40848;DHT22;26570;50.962;5.340;2023-09-19T12:22:10;22.70;99.90
40848;DHT22;26570;50.962;5.340;2023-09-19T12:25:14;22.60;99.90
40848;DHT22;26570;50.962;5.340;2023-09-19T12:28:01;22.40;99.90
40848;DHT22;26570;50.962;5.340;2023-09-19T12:30:47;22.30;99.90
40848;DHT22;26570;50.962;5.340;2023-09-19T12:33:54;22.20;99.90
40848;DHT22;26570;50.962;5.340;2023-09-19T12:40:15;21.90;99.90
40848;DHT22;26570;50.962;5.340;2023-09-19T12:43:21;22.10;99.90
40848;DHT22;26570;50.962;5.340;2023-09-19T12:46:14;22.20;99.90
40848;DHT22;26570;50.962;5.340;2023-09-19T12:49:19;22.60;99.90
40848;DHT22;26570;50.962;5.340;2023-09-19T12:52:07;22.80;99.90
40848;DHT22;26570;50.962;5.340;2023-09-19T12:54:53;22.70;99.90
40848;DHT22;26570;50.962;5.340;2023-09-19T12:57:38;22.30;99.90
40848;DHT22;26570;50.962;5.340;2023-09-19T13:00:43;22.00;99.90
40848;DHT22;26570;50.962;5.340;2023-09-19T13:03:31;21.80;99.90
40848;DHT22;26570;50.962;5.340;2023-09-19T13:06:35;21.90;99.90
40848;DHT22;26570;50.962;5.340;2023-09-19T13:09:24;21.50;99.90
40848;DHT22;26570;50.962;5.340;2023-09-19T13:12:34;21.50;99.90
40848;DHT22;26570;50.962;5.340;2023-09-19T13:15:21;21.50;99.90
40848;DHT22;26570;50.962;5.340;2023-09-19T13:18:11;21.70;99.90
40848;DHT22;26570;50.962;5.340;2023-09-19T13:21:08;21.70;99.90
40848;DHT22;26570;50.962;5.340;2023-09-19T13:24:24;21.70;99.90
40848;DHT22;26570;50.962;5.340;2023-09-19T13:27:13;21.70;99.90
40848;DHT22;26570;50.962;5.340;2023-09-19T13:29:59;21.70;99.90
40848;DHT22;26570;50.962;5.340;2023-09-19T13:32:44;21.80;99.90
40848;DHT22;26570;50.962;5.340;2023-09-19T13:35:31;21.70;99.90
40848;DHT22;26570;50.962;5.340;2023-09-19T13:38:17;21.50;99.90
40848;DHT22;26570;50.962;5.340;2023-09-19T13:41:03;21.80;99.90
40848;DHT22;26570;50.962;5.340;2023-09-19T13:43:48;21.80;99.90
40848;DHT22;26570;50.962;5.340;2023-09-19T13:46:33;21.60;99.90
40848;DHT22;26570;50.962;5.340;2023-09-19T13:49:19;21.60;99.90
40848;DHT22;26570;50.962;5.340;2023-09-19T13:52:05;21.60;99.90
40848;DHT22;26570;50.962;5.340;2023-09-19T13:54:51;21.60;99.90
40848;DHT22;26570;50.962;5.340;2023-09-19T13:57:37;21.70;99.90
40848;DHT22;26570;50.962;5.340;2023-09-19T14:00:25;21.70;99.90
40848;DHT22;26570;50.962;5.340;2023-09-19T14:03:10;21.70;99.90
40848;DHT22;26570;50.962;5.340;2023-09-19T14:05:55;21.60;99.90
40848;DHT22;26570;50.962;5.340;2023-09-19T14:08:40;21.50;99.90
40848;DHT22;26570;50.962;5.340;2023-09-19T14:11:25;21.40;99.90
40848;DHT22;26570;50.962;5.340;2023-09-19T14:14:11;21.40;99.90
40848;DHT22;26570;50.962;5.340;2023-09-19T14:16:57;21.40;99.90
40848;DHT22;26570;50.962;5.340;2023-09-19T14:19:45;21.20;99.90
40848;DHT22;26570;50.962;5.340;2023-09-19T14:22:31;21.10;99.90
40848;DHT22;26570;50.962;5.340;2023-09-19T14:25:16;20.90;99.90
40848;DHT22;26570;50.962;5.340;2023-09-19T14:28:01;21.00;99.90
40848;DHT22;26570;50.962;5.340;2023-09-19T14:30:46;20.90;99.90
40848;DHT22;26570;50.962;5.340;2023-09-19T14:33:31;20.90;99.90
40848;DHT22;26570;50.962;5.340;2023-09-19T14:36:16;20.80;99.90
40848;DHT22;26570;50.962;5.340;2023-09-19T14:39:01;20.80;99.90
40848;DHT22;26570;50.962;5.340;2023-09-19T14:41:47;20.80;99.90
40848;DHT22;26570;50.962;5.340;2023-09-19T14:44:32;20.90;99.90
40848;DHT22;26570;50.962;5.340;2023-09-19T14:47:17;21.10;99.90
40848;DHT22;26570;50.962;5.340;2023-09-19T14:50:03;21.20;99.90
40848;DHT22;26570;50.962;5.340;2023-09-19T14:52:50;21.20;99.90
40848;DHT22;26570;50.962;5.340;2023-09-19T14:55:37;21.20;99.90
40848;DHT22;26570;50.962;5.340;2023-09-19T14:58:26;21.30;99.90
40848;DHT22;26570;50.962;5.340;2023-09-19T15:01:14;21.30;99.90
40848;DHT22;26570;50.962;5.340;2023-09-19T15:03:59;21.50;99.90
40848;DHT22;26570;50.962;5.340;2023-09-19T15:06:45;21.40;99.90
40848;DHT22;26570;50.962;5.340;2023-09-19T15:09:30;21.40;99.90
40848;DHT22;26570;50.962;5.340;2023-09-19T15:12:18;21.40;99.90
40848;DHT22;26570;50.962;5.340;2023-09-19T15:15:04;21.20;99.90
40848;DHT22;26570;50.962;5.340;2023-09-19T15:17:51;21.10;99.90
40848;DHT22;26570;50.962;5.340;2023-09-19T15:20:36;21.10;99.90
40848;DHT22;26570;50.962;5.340;2023-09-19T15:23:21;21.20;99.90
40848;DHT22;26570;50.962;5.340;2023-09-19T15:26:07;21.20;99.90
40848;DHT22;26570;50.962;5.340;2023-09-19T15:28:58;21.20;99.90
40848;DHT22;26570;50.962;5.340;2023-09-19T15:31:44;21.00;99.90
40848;DHT22;26570;50.962;5.340;2023-09-19T15:34:29;21.20;99.90
40848;DHT22;26570;50.962;5.340;2023-09-19T15:37:14;21.30;99.90
40848;DHT22;26570;50.962;5.340;2023-09-19T15:39:59;21.30;99.90
40848;DHT22;26570;50.962;5.340;2023-09-19T15:42:44;21.40;99.90
40848;DHT22;26570;50.962;5.340;2023-09-19T15:45:29;21.40;99.90
40848;DHT22;26570;50.962;5.340;2023-09-19T15:48:14;21.10;99.90
40848;DHT22;26570;50.962;5.340;2023-09-19T15:51:03;21.10;99.90
40848;DHT22;26570;50.962;5.340;2023-09-19T15:53:51;21.00;99.90
40848;DHT22;26570;50.962;5.340;2023-09-19T15:56:36;21.00;99.90
40848;DHT22;26570;50.962;5.340;2023-09-19T15:59:21;20.80;99.90
40848;DHT22;26570;50.962;5.340;2023-09-19T16:02:06;20.70;99.90
40848;DHT22;26570;50.962;5.340;2023-09-19T16:04:51;20.50;99.90
40848;DHT22;26570;50.962;5.340;2023-09-19T16:07:35;20.40;99.90
40848;DHT22;26570;50.962;5.340;2023-09-19T16:10:20;20.50;99.90
40848;DHT22;26570;50.962;5.340;2023-09-19T16:13:07;20.40;99.90
40848;DHT22;26570;50.962;5.340;2023-09-19T16:15:53;20.30;99.90
40848;DHT22;26570;50.962;5.340;2023-09-19T16:18:39;20.30;99.90
40848;DHT22;26570;50.962;5.340;2023-09-19T16:21:25;20.40;99.90
40848;DHT22;26570;50.962;5.340;2023-09-19T16:24:11;20.20;99.90
40848;DHT22;26570;50.962;5.340;2023-09-19T16:26:56;20.20;99.90
40848;DHT22;26570;50.962;5.340;2023-09-19T16:29:41;20.30;99.90
40848;DHT22;26570;50.962;5.340;2023-09-19T16:32:26;20.20;99.90
40848;DHT22;26570;50.962;5.340;2023-09-19T16:35:11;20.20;99.90
40848;DHT22;26570;50.962;5.340;2023-09-19T16:37:55;20.30;99.90
40848;DHT22;26570;50.962;5.340;2023-09-19T16:40:54;20.10;99.90
40848;DHT22;26570;50.962;5.340;2023-09-19T16:43:40;20.10;99.90
40848;DHT22;26570;50.962;5.340;2023-09-19T16:46:25;20.20;99.90
40848;DHT22;26570;50.962;5.340;2023-09-19T16:49:10;20.10;99.90
40848;DHT22;26570;50.962;5.340;2023-09-19T16:51:55;20.10;99.90
40848;DHT22;26570;50.962;5.340;2023-09-19T16:54:40;20.10;99.90
40848;DHT22;26570;50.962;5.340;2023-09-19T16:57:25;20.00;99.90
40848;DHT22;26570;50.962;5.340;2023-09-19T17:00:11;20.00;99.90
40848;DHT22;26570;50.962;5.340;2023-09-19T17:03:01;20.00;99.90
40848;DHT22;26570;50.962;5.340;2023-09-19T17:05:49;20.00;99.90
40848;DHT22;26570;50.962;5.340;2023-09-19T17:08:34;19.90;99.90
40848;DHT22;26570;50.962;5.340;2023-09-19T17:11:19;19.80;99.90
40848;DHT22;26570;50.962;5.340;2023-09-19T17:14:05;19.70;99.90
40848;DHT22;26570;50.962;5.340;2023-09-19T17:16:54;19.70;99.90
40848;DHT22;26570;50.962;5.340;2023-09-19T17:19:39;19.80;99.90
40848;DHT22;26570;50.962;5.340;2023-09-19T17:22:24;19.90;99.90
40848;DHT22;26570;50.962;5.340;2023-09-19T17:25:09;19.90;99.90
40848;DHT22;26570;50.962;5.340;2023-09-19T17:27:54;19.80;99.90
40848;DHT22;26570;50.962;5.340;2023-09-19T17:30:38;19.90;99.90
40848;DHT22;26570;50.962;5.340;2023-09-19T17:33:26;19.90;99.90
40848;DHT22;26570;50.962;5.340;2023-09-19T17:36:19;19.90;99.90
40848;DHT22;26570;50.962;5.340;2023-09-19T17:39:05;19.80;99.90
40848;DHT22;26570;50.962;5.340;2023-09-19T17:41:55;19.70;99.90
40848;DHT22;26570;50.962;5.340;2023-09-19T17:44:41;19.70;99.90
40848;DHT22;26570;50.962;5.340;2023-09-19T17:47:26;19.80;99.90
40848;DHT22;26570;50.962;5.340;2023-09-19T17:50:11;19.70;99.90
40848;DHT22;26570;50.962;5.340;2023-09-19T17:53:02;19.70;99.90
40848;DHT22;26570;50.962;5.340;2023-09-19T17:55:48;19.80;99.90
40848;DHT22;26570;50.962;5.340;2023-09-19T17:58:36;19.80;99.90
40848;DHT22;26570;50.962;5.340;2023-09-19T18:01:21;19.70;99.90
40848;DHT22;26570;50.962;5.340;2023-09-19T18:04:10;19.60;99.90
40848;DHT22;26570;50.962;5.340;2023-09-19T18:07:11;19.60;99.90
40848;DHT22;26570;50.962;5.340;2023-09-19T18:10:06;19.60;99.90
40848;DHT22;26570;50.962;5.340;2023-09-19T18:12:52;19.60;99.90
40848;DHT22;26570;50.962;5.340;2023-09-19T18:15:37;19.60;99.90
40848;DHT22;26570;50.962;5.340;2023-09-19T18:18:25;19.70;99.90
40848;DHT22;26570;50.962;5.340;2023-09-19T18:21:10;19.60;99.90
40848;DHT22;26570;50.962;5.340;2023-09-19T18:23:58;19.70;99.90
40848;DHT22;26570;50.962;5.340;2023-09-19T18:26:48;19.70;99.90
40848;DHT22;26570;50.962;5.340;2023-09-19T18:29:33;19.70;99.90
40848;DHT22;26570;50.962;5.340;2023-09-19T18:32:18;19.60;99.90
40848;DHT22;26570;50.962;5.340;2023-09-19T18:35:04;19.50;99.90
40848;DHT22;26570;50.962;5.340;2023-09-19T18:37:52;19.60;99.90
40848;DHT22;26570;50.962;5.340;2023-09-19T18:40:43;19.60;99.90
40848;DHT22;26570;50.962;5.340;2023-09-19T18:43:28;19.60;99.90
40848;DHT22;26570;50.962;5.340;2023-09-19T18:46:15;19.50;99.90
40848;DHT22;26570;50.962;5.340;2023-09-19T18:49:02;19.50;99.90
40848;DHT22;26570;50.962;5.340;2023-09-19T18:51:47;19.40;99.90
40848;DHT22;26570;50.962;5.340;2023-09-19T18:54:32;19.30;99.90
40848;DHT22;26570;50.962;5.340;2023-09-19T18:57:17;19.20;99.90
40848;DHT22;26570;50.962;5.340;2023-09-19T19:00:04;19.30;99.90
40848;DHT22;26570;50.962;5.340;2023-09-19T19:02:49;19.30;99.90
40848;DHT22;26570;50.962;5.340;2023-09-19T19:05:34;19.40;99.90
40848;DHT22;26570;50.962;5.340;2023-09-19T19:08:19;19.30;99.90
40848;DHT22;26570;50.962;5.340;2023-09-19T19:11:11;19.40;99.90
40848;DHT22;26570;50.962;5.340;2023-09-19T19:13:56;19.40;99.90
40848;DHT22;26570;50.962;5.340;2023-09-19T19:16:41;19.40;99.90
40848;DHT22;26570;50.962;5.340;2023-09-19T19:19:28;19.50;99.90
40848;DHT22;26570;50.962;5.340;2023-09-19T19:22:14;19.40;99.90
40848;DHT22;26570;50.962;5.340;2023-09-19T19:24:59;19.40;99.90
40848;DHT22;26570;50.962;5.340;2023-09-19T19:27:45;19.30;99.90
40848;DHT22;26570;50.962;5.340;2023-09-19T19:30:31;19.50;99.90
40848;DHT22;26570;50.962;5.340;2023-09-19T19:33:18;19.40;99.90